Flight Track Log - Related Links

Times and Time Zones

All times are in EDT time to prevent confusion due to time zone crossing. See the N207AH flight status page for this flight to view local times or setup timezone preferences in your user account.

Time Position Orientation Groundspeed Altitude Reporting Facility
EDT Latitude Longitude Course Direction KTS MPH feet Rate Location/Type
Thu 03:58:28 PM 41.4011 -81.8797 248° West 169 194 2,000  Level Cleveland Center
Thu 03:58:52 PM 41.3936 -81.9050 248° West 196 226 3,300 4,769 Climbing Cleveland Center
Thu 03:59:46 PM 41.3744 -81.9842 252° West 236 272 8,200 5,032 Climbing Cleveland Center
Thu 03:59:54 PM 41.3744 -81.9869 270° West 223 257 8,500 3,127 Climbing Cleveland Center
Thu 04:00:57 PM 41.3422 -82.0725 243° Southwest 259 298 11,900 2,496 Climbing Cleveland Center
Thu 04:01:59 PM 41.3072 -82.1878 248° West 333 383 13,700 1,984 Climbing Cleveland Center
Thu 04:03:01 PM 41.2639 -82.3267 247° West 344 396 16,000 1,113 Climbing Cleveland Center
Thu 04:04:03 PM 41.2272 -82.4442 247° West 345 397 16,000  Level Cleveland Center
Thu 04:05:05 PM 41.1869 -82.5533 244° Southwest 331 381 16,000  Level Cleveland Center
Thu 04:06:07 PM 41.1411 -82.6581 240° Southwest 326 375 16,000  Level Cleveland Center
Thu 04:07:09 PM 41.1017 -82.7719 245° Southwest 338 389 16,000  Level Cleveland Center
Thu 04:08:11 PM 41.0825 -82.8956 258° West 337 388 16,000  Level Cleveland Center
Thu 04:09:13 PM 41.0658 -83.0186 260° West 339 390 16,000  Level Cleveland Center
Thu 04:10:16 PM 41.0456 -83.1569 259° West 330 380 16,000  Level Cleveland Center
Thu 04:11:18 PM 41.0281 -83.2742 259° West 319 367 16,000  Level Cleveland Center
Thu 04:12:20 PM 41.0114 -83.3894 259° West 319 367 16,000  Level Cleveland Center
Thu 04:13:22 PM 40.9933 -83.5072 259° West 324 373 16,000  Level Cleveland Center
Thu 04:14:24 PM 40.9753 -83.6261 259° West 326 375 16,000  Level Cleveland Center
Thu 04:15:26 PM 40.9583 -83.7453 259° West 330 380 16,000  Level Cleveland Center
Thu 04:16:28 PM 40.9575 -83.8739 270° West 329 379 16,000 -48 Level Cleveland Center
Thu 04:17:30 PM 40.9603 -83.9936 272° West 328 377 15,900 -433 Descending Cleveland Center
Thu 04:18:05 PM 40.9628 -84.0644 273° West 329 379 15,300 -1,041 Descending Chicago Center
Thu 04:19:08 PM 40.9653 -84.1822 272° West 324 373 14,200 -1,152 Descending Chicago Center
Thu 04:20:10 PM 40.9672 -84.3197 271° West 317 365 12,900 -1,113 Descending Chicago Center
Thu 04:21:12 PM 40.9694 -84.4347 272° West 316 364 11,900 -1,016 Descending Chicago Center
Thu 04:22:14 PM 40.9703 -84.5489 271° West 315 362 10,800 -1,452 Descending Chicago Center
Thu 04:23:16 PM 40.9731 -84.6547 272° West 296 341 8,900 -1,790 Descending Chicago Center
Thu 04:24:18 PM 40.9686 -84.7519 267° West 276 318 7,100 -1,790 Descending Chicago Center
Thu 04:25:20 PM 40.9553 -84.8517 260° West 274 315 5,200 -1,984 Descending Chicago Center
Thu 04:26:22 PM 40.9436 -84.9681 262° West 273 314 3,000 -1,392 Descending Chicago Center
Thu 04:27:25 PM 40.9408 -85.0469 267° West 243 280 2,300 -432 Descending Chicago Center
Thu 04:28:27 PM 40.9425 -85.1103 272° West 203 234 2,100 -242 Descending Chicago Center
Thu 04:29:29 PM 40.9514 -85.1739 281° West 184 212 1,800 -290 Descending Chicago Center
Thu 04:31:00 PM 40.9667 -85.1833 270° West  Level FlightAware Approximate

Login

Don't have an account? Register now (free) for customized features, flight alerts, and more!